Airport View

Enter AWOS ICAO identifier for current METAR.

ex. KFNL

KWWR 310315Z AUTO 14010KT 10SM CLR 22/13 A3015 RMK AO2

31 May 2020 03:50

Frequency: 118.425

Phone: 580-254-5217

Other Area AWOS: KGAG - KAVK - KHHF - KPYX

TAF KWWR 302320Z 3100/3124 16013KT P6SM SCT250 FM311400 18014G23KT P6SM FEW250